Terminal Aerodrome Forecast
Issued by NWS Wilmington, OH

Current Version | Previous Version | Text Only | Print | Product List | Glossary Off
Versions: 1 2 3 4 5 6 7 8 9 10 11 12 13 14 15 16 17 18 19 20

000
FTUS41 KILN 202000 AAA
TAFCMH
TAF AMD
KCMH 202036Z 2021/2118 25017G24KT P6SM SCT040
     FM210000 26013KT P6SM BKN035
     FM210900 26005KT P6SM SKC
     FM211500 23004KT P6SM SCT250=

USA.gov is the U.S. government's official web portal to all federal, state and local government web resources and services.